SRR819 EGNX-EKBI
Flight info
| Callsign | SRR819 |
|---|---|
| Flight time | N/A |
| Altitude | 37000 |
| Route | SAPCO Y53 DTY P166 BANTO P155 SOMVA DCT MAVAS DCT ANDIK N873 REXMI DCT UVINA DCT LOKSA |
| Aircraft | B763/H-SDE3FGHIM3RWXY/LB1 |
Departure
| Time | 2026-05-08 06:37 |
|---|---|
| Airport | East Midlands Airport (EGNX) |
Arrival
| Time | N/A |
|---|---|
| Airport | Billund Airport (EKBI) |
| Time | Latitude | Longitude | Altitude | Speed | Heading |
|---|---|---|---|---|---|
| 2026-05-08 06:11 | 52.82749 | -1.34760 | 317 ft | 0 kts | 178° |
| 2026-05-08 06:26 | 52.82755 | -1.34760 | 317 ft | 2 kts | 178° |
| 2026-05-08 06:26 | 52.82769 | -1.34761 | 317 ft | 2 kts | 178° |
| 2026-05-08 06:26 | 52.82784 | -1.34762 | 317 ft | 2 kts | 178° |
| 2026-05-08 06:26 | 52.82799 | -1.34763 | 317 ft | 2 kts | 190° |
| 2026-05-08 06:27 | 52.82813 | -1.34753 | 317 ft | 2 kts | 218° |
| 2026-05-08 06:27 | 52.82823 | -1.34736 | 317 ft | 2 kts | 243° |
| 2026-05-08 06:27 | 52.82828 | -1.34714 | 317 ft | 0 kts | 265° |
| 2026-05-08 06:27 | 52.82828 | -1.34712 | 317 ft | 1 kts | 268° |
| 2026-05-08 06:28 | 52.82828 | -1.34706 | 317 ft | 1 kts | 270° |
| 2026-05-08 06:28 | 52.82828 | -1.34702 | 317 ft | 0 kts | 269° |
| 2026-05-08 06:30 | 52.82828 | -1.34705 | 317 ft | 1 kts | 269° |
| 2026-05-08 06:30 | 52.82827 | -1.34735 | 317 ft | 3 kts | 269° |
| 2026-05-08 06:31 | 52.82826 | -1.34783 | 317 ft | 6 kts | 268° |
| 2026-05-08 06:31 | 52.82824 | -1.34872 | 317 ft | 9 kts | 268° |
| 2026-05-08 06:31 | 52.82822 | -1.34991 | 317 ft | 11 kts | 268° |
| 2026-05-08 06:31 | 52.82819 | -1.35142 | 317 ft | 13 kts | 269° |
| 2026-05-08 06:32 | 52.82851 | -1.35253 | 317 ft | 10 kts | 338° |
| 2026-05-08 06:32 | 52.82889 | -1.35215 | 317 ft | 5 kts | 77° |
| 2026-05-08 06:32 | 52.82892 | -1.35132 | 317 ft | 7 kts | 88° |
| 2026-05-08 06:32 | 52.82893 | -1.35040 | 317 ft | 8 kts | 89° |
| 2026-05-08 06:33 | 52.82903 | -1.34957 | 317 ft | 7 kts | 57° |
| 2026-05-08 06:33 | 52.82944 | -1.34926 | 317 ft | 6 kts | 2° |
| 2026-05-08 06:33 | 52.82987 | -1.34928 | 317 ft | 6 kts | 357° |
| 2026-05-08 06:33 | 52.83037 | -1.34930 | 317 ft | 7 kts | 6° |
| 2026-05-08 06:34 | 52.83059 | -1.34896 | 317 ft | 0 kts | 90° |
| 2026-05-08 06:36 | 52.83059 | -1.34888 | 317 ft | 4 kts | 90° |
| 2026-05-08 06:36 | 52.83063 | -1.34657 | 317 ft | 40 kts | 88° |
| 2026-05-08 06:36 | 52.83076 | -1.33948 | 317 ft | 82 kts | 89° |
| 2026-05-08 06:36 | 52.83096 | -1.32803 | 317 ft | 115 kts | 88° |
| 2026-05-08 06:37 | 52.83123 | -1.31360 | 317 ft | 134 kts | 89° |
| 2026-05-08 06:37 | 52.83207 | -1.29722 | 366 ft | 148 kts | 80° |
| 2026-05-08 06:37 | 52.83243 | -1.27809 | 511 ft | 183 kts | 101° |
| 2026-05-08 06:37 | 52.83007 | -1.25904 | 1541 ft | 162 kts | 103° |
| 2026-05-08 06:38 | 52.82601 | -1.24179 | 1655 ft | 171 kts | 127° |
| 2026-05-08 06:38 | 52.81852 | -1.22563 | 1851 ft | 184 kts | 129° |
| 2026-05-08 06:38 | 52.81024 | -1.20869 | 2101 ft | 195 kts | 131° |
| 2026-05-08 06:38 | 52.80114 | -1.19130 | 2314 ft | 209 kts | 133° |
| 2026-05-08 06:39 | 52.78985 | -1.17592 | 2622 ft | 215 kts | 159° |
| 2026-05-08 06:39 | 52.77522 | -1.17327 | 3062 ft | 215 kts | 187° |
| 2026-05-08 06:39 | 52.76046 | -1.17681 | 3499 ft | 218 kts | 189° |
| 2026-05-08 06:39 | 52.74537 | -1.18425 | 3775 ft | 233 kts | 201° |
| 2026-05-08 06:40 | 52.73040 | -1.19513 | 4255 ft | 238 kts | 206° |
| 2026-05-08 06:40 | 52.71599 | -1.20853 | 4817 ft | 241 kts | 211° |
| 2026-05-08 06:40 | 52.70178 | -1.22361 | 5277 ft | 250 kts | 213° |
| 2026-05-08 06:40 | 52.68731 | -1.24041 | 5626 ft | 263 kts | 215° |
| 2026-05-08 06:41 | 52.67248 | -1.25850 | 6277 ft | 265 kts | 216° |
| 2026-05-08 06:41 | 52.65779 | -1.27688 | 6897 ft | 268 kts | 217° |
| 2026-05-08 06:41 | 52.64317 | -1.29546 | 7535 ft | 271 kts | 217° |
| 2026-05-08 06:41 | 52.62836 | -1.31443 | 8193 ft | 272 kts | 218° |
| 2026-05-08 06:42 | 52.61340 | -1.33368 | 8833 ft | 276 kts | 218° |
| 2026-05-08 06:42 | 52.59721 | -1.35149 | 9067 ft | 289 kts | 203° |
| 2026-05-08 06:42 | 52.57782 | -1.35787 | 9072 ft | 287 kts | 181° |
| 2026-05-08 06:42 | 52.55838 | -1.35493 | 9040 ft | 278 kts | 171° |
| 2026-05-08 06:43 | 52.53977 | -1.34699 | 9038 ft | 274 kts | 164° |
| 2026-05-08 06:43 | 52.52139 | -1.33829 | 9049 ft | 278 kts | 165° |
| 2026-05-08 06:43 | 52.50288 | -1.32819 | 9485 ft | 285 kts | 162° |
| 2026-05-08 06:43 | 52.48444 | -1.31709 | 10217 ft | 285 kts | 161° |
| 2026-05-08 06:44 | 52.46575 | -1.30527 | 10610 ft | 299 kts | 160° |
| 2026-05-08 06:44 | 52.44576 | -1.29220 | 10952 ft | 316 kts | 160° |
| 2026-05-08 06:44 | 52.42493 | -1.27836 | 11292 ft | 333 kts | 159° |
| 2026-05-08 06:44 | 52.40313 | -1.26376 | 11630 ft | 350 kts | 159° |
| 2026-05-08 06:45 | 52.38005 | -1.24824 | 11985 ft | 368 kts | 159° |
| 2026-05-08 06:45 | 52.35600 | -1.23130 | 12516 ft | 381 kts | 154° |
| 2026-05-08 06:45 | 52.33425 | -1.20687 | 13304 ft | 388 kts | 139° |
| 2026-05-08 06:45 | 52.31678 | -1.17291 | 14078 ft | 395 kts | 124° |
| 2026-05-08 06:46 | 52.30529 | -1.13274 | 14821 ft | 402 kts | 109° |
| 2026-05-08 06:46 | 52.30018 | -1.08758 | 15583 ft | 408 kts | 95° |
| 2026-05-08 06:46 | 52.30082 | -1.04105 | 16298 ft | 414 kts | 85° |
| 2026-05-08 06:46 | 52.30449 | -0.99462 | 17017 ft | 418 kts | 84° |
| 2026-05-08 06:47 | 52.30779 | -0.94755 | 17721 ft | 422 kts | 84° |
| 2026-05-08 06:47 | 52.31126 | -0.90031 | 18425 ft | 426 kts | 85° |
| 2026-05-08 06:47 | 52.31467 | -0.85285 | 19135 ft | 430 kts | 84° |
| 2026-05-08 06:47 | 52.31816 | -0.80425 | 19792 ft | 435 kts | 84° |
| 2026-05-08 06:48 | 52.32166 | -0.75516 | 20491 ft | 439 kts | 84° |
| 2026-05-08 06:48 | 52.32518 | -0.70549 | 21149 ft | 443 kts | 84° |
| 2026-05-08 06:48 | 52.32869 | -0.65579 | 21778 ft | 448 kts | 84° |
| 2026-05-08 06:48 | 52.33223 | -0.60528 | 22424 ft | 452 kts | 84° |
| 2026-05-08 06:49 | 52.33577 | -0.55456 | 23055 ft | 456 kts | 84° |
| 2026-05-08 06:49 | 52.33934 | -0.50306 | 23672 ft | 460 kts | 84° |
| 2026-05-08 06:49 | 52.34295 | -0.45053 | 24273 ft | 464 kts | 84° |
| 2026-05-08 06:49 | 52.34650 | -0.39866 | 24876 ft | 468 kts | 84° |
| 2026-05-08 06:50 | 52.35010 | -0.34555 | 25444 ft | 472 kts | 85° |
| 2026-05-08 06:50 | 52.35371 | -0.29208 | 25991 ft | 476 kts | 85° |
| 2026-05-08 06:50 | 52.35693 | -0.23885 | 26540 ft | 479 kts | 88° |
| 2026-05-08 06:50 | 52.35704 | -0.18426 | 27028 ft | 483 kts | 92° |
| 2026-05-08 06:51 | 52.35686 | -0.12892 | 27560 ft | 487 kts | 91° |
| 2026-05-08 06:51 | 52.35656 | -0.07404 | 28081 ft | 490 kts | 91° |
| 2026-05-08 06:51 | 52.35625 | -0.01833 | 28576 ft | 493 kts | 91° |
| 2026-05-08 06:51 | 52.35586 | 0.03749 | 29056 ft | 497 kts | 91° |
| 2026-05-08 06:52 | 52.35543 | 0.09440 | 29506 ft | 500 kts | 91° |
| 2026-05-08 06:52 | 52.35498 | 0.15079 | 30104 ft | 499 kts | 92° |
| 2026-05-08 06:52 | 52.35450 | 0.20677 | 30692 ft | 498 kts | 92° |
| 2026-05-08 06:52 | 52.35397 | 0.26360 | 31247 ft | 497 kts | 92° |
| 2026-05-08 06:53 | 52.35343 | 0.31923 | 31792 ft | 496 kts | 92° |
| 2026-05-08 06:53 | 52.35284 | 0.37592 | 32266 ft | 495 kts | 91° |
| 2026-05-08 06:53 | 52.35225 | 0.43159 | 32727 ft | 495 kts | 91° |
| 2026-05-08 06:53 | 52.35162 | 0.48778 | 33185 ft | 494 kts | 91° |
| 2026-05-08 06:54 | 52.35097 | 0.54334 | 33622 ft | 494 kts | 91° |
| 2026-05-08 06:54 | 52.35028 | 0.59953 | 34098 ft | 492 kts | 91° |
| 2026-05-08 06:54 | 52.34959 | 0.65472 | 34483 ft | 492 kts | 92° |
| 2026-05-08 06:54 | 52.34886 | 0.71043 | 34853 ft | 490 kts | 92° |
| 2026-05-08 06:55 | 52.34811 | 0.76593 | 35204 ft | 489 kts | 92° |
| 2026-05-08 06:55 | 52.34732 | 0.82151 | 35456 ft | 489 kts | 92° |
| 2026-05-08 06:55 | 52.34653 | 0.87647 | 35681 ft | 489 kts | 92° |
| 2026-05-08 06:55 | 52.34570 | 0.93167 | 35919 ft | 489 kts | 92° |
| 2026-05-08 06:56 | 52.34485 | 0.98681 | 36124 ft | 490 kts | 92° |
| 2026-05-08 06:56 | 52.34396 | 1.04271 | 36345 ft | 490 kts | 92° |
| 2026-05-08 06:56 | 52.34306 | 1.09781 | 36564 ft | 489 kts | 92° |
| 2026-05-08 06:56 | 52.34212 | 1.15334 | 36771 ft | 488 kts | 92° |
| 2026-05-08 06:57 | 52.34116 | 1.20842 | 36950 ft | 489 kts | 92° |
| 2026-05-08 06:57 | 52.34018 | 1.26377 | 37070 ft | 484 kts | 92° |
| 2026-05-08 06:57 | 52.33826 | 1.36786 | 37092 ft | 483 kts | 92° |
| 2026-05-08 06:58 | 52.33615 | 1.47702 | 37089 ft | 485 kts | 92° |
| 2026-05-08 06:58 | 52.33391 | 1.58722 | 37094 ft | 487 kts | 92° |
| 2026-05-08 06:59 | 52.33158 | 1.69692 | 37088 ft | 486 kts | 93° |
| 2026-05-08 06:59 | 52.32914 | 1.80667 | 37090 ft | 486 kts | 93° |
| 2026-05-08 07:00 | 52.32659 | 1.91717 | 37092 ft | 487 kts | 93° |
| 2026-05-08 07:00 | 52.32395 | 2.02681 | 37089 ft | 486 kts | 93° |
| 2026-05-08 07:01 | 52.32120 | 2.13696 | 37091 ft | 486 kts | 93° |
| 2026-05-08 07:01 | 52.31835 | 2.24704 | 37092 ft | 487 kts | 93° |
| 2026-05-08 07:02 | 52.31542 | 2.35631 | 37090 ft | 486 kts | 93° |
| 2026-05-08 07:02 | 52.31237 | 2.46619 | 37088 ft | 486 kts | 93° |
| 2026-05-08 07:03 | 52.30922 | 2.57620 | 37093 ft | 485 kts | 93° |
| 2026-05-08 07:03 | 52.31547 | 2.68517 | 37097 ft | 488 kts | 76° |
| 2026-05-08 07:04 | 52.33361 | 2.79116 | 37094 ft | 489 kts | 75° |
| 2026-05-08 07:04 | 52.35213 | 2.89793 | 37088 ft | 488 kts | 74° |
| 2026-05-08 07:05 | 52.37059 | 3.00426 | 37093 ft | 488 kts | 74° |
| 2026-05-08 07:05 | 52.38907 | 3.11098 | 37092 ft | 488 kts | 74° |
| 2026-05-08 07:06 | 52.40732 | 3.21701 | 37095 ft | 488 kts | 74° |
| 2026-05-08 07:06 | 52.42563 | 3.32404 | 37098 ft | 488 kts | 74° |
| 2026-05-08 07:07 | 52.44375 | 3.43054 | 37097 ft | 488 kts | 74° |
| 2026-05-08 07:07 | 52.46172 | 3.53686 | 37095 ft | 488 kts | 75° |
| 2026-05-08 07:08 | 52.47975 | 3.64415 | 37101 ft | 488 kts | 74° |
| 2026-05-08 07:08 | 52.49754 | 3.75066 | 37098 ft | 488 kts | 75° |
| 2026-05-08 07:09 | 52.51531 | 3.85775 | 37103 ft | 488 kts | 75° |
| 2026-05-08 07:09 | 52.53297 | 3.96482 | 37107 ft | 488 kts | 75° |
| 2026-05-08 07:10 | 52.55060 | 4.07241 | 37111 ft | 488 kts | 75° |
| 2026-05-08 07:10 | 52.56797 | 4.17907 | 37112 ft | 488 kts | 75° |
| 2026-05-08 07:11 | 52.58535 | 4.28642 | 37113 ft | 488 kts | 75° |
| 2026-05-08 07:11 | 52.60267 | 4.39411 | 37114 ft | 489 kts | 75° |
| 2026-05-08 07:12 | 52.61981 | 4.50145 | 37119 ft | 489 kts | 75° |
| 2026-05-08 07:12 | 52.63692 | 4.60924 | 37120 ft | 489 kts | 75° |
| 2026-05-08 07:13 | 52.65403 | 4.71769 | 37117 ft | 489 kts | 76° |
| 2026-05-08 07:13 | 52.67094 | 4.82568 | 37121 ft | 489 kts | 76° |
| 2026-05-08 07:14 | 52.68766 | 4.93312 | 37121 ft | 488 kts | 76° |
| 2026-05-08 07:14 | 52.70435 | 5.04104 | 37127 ft | 488 kts | 76° |
| 2026-05-08 07:15 | 52.72092 | 5.14896 | 37129 ft | 488 kts | 76° |
| 2026-05-08 07:15 | 52.74061 | 5.25528 | 37132 ft | 488 kts | 65° |
| 2026-05-08 07:16 | 52.77700 | 5.34942 | 37144 ft | 489 kts | 51° |
| 2026-05-08 07:16 | 52.81859 | 5.43761 | 37135 ft | 489 kts | 51° |
| 2026-05-08 07:17 | 52.86018 | 5.52621 | 37136 ft | 489 kts | 51° |
| 2026-05-08 07:17 | 52.90147 | 5.61443 | 37142 ft | 488 kts | 51° |
| 2026-05-08 07:18 | 52.94300 | 5.70344 | 37139 ft | 488 kts | 52° |
| 2026-05-08 07:18 | 52.98426 | 5.79220 | 37148 ft | 489 kts | 52° |
| 2026-05-08 07:19 | 53.02544 | 5.88109 | 37145 ft | 489 kts | 52° |
| 2026-05-08 07:19 | 53.06662 | 5.97030 | 37152 ft | 489 kts | 52° |
| 2026-05-08 07:20 | 53.10788 | 6.06000 | 37146 ft | 488 kts | 52° |
| 2026-05-08 07:20 | 53.14895 | 6.14961 | 37145 ft | 489 kts | 52° |
| 2026-05-08 07:21 | 53.18980 | 6.23908 | 37149 ft | 489 kts | 52° |